sensor_id;sensor_type;location;lat;lon;timestamp;P1;durP1;ratioP1;P2;durP2;ratioP2
12972;SDS011;6551;51.056;9.466;2022-08-19T00:00:16;18.47;;;16.57;;
12972;SDS011;6551;51.056;9.466;2022-08-19T00:02:43;18.27;;;15.27;;
12972;SDS011;6551;51.056;9.466;2022-08-19T00:05:09;20.92;;;16.55;;
12972;SDS011;6551;51.056;9.466;2022-08-19T00:07:36;18.27;;;16.10;;
12972;SDS011;6551;51.056;9.466;2022-08-19T00:10:02;20.73;;;17.33;;
12972;SDS011;6551;51.056;9.466;2022-08-19T00:12:31;19.77;;;16.50;;
12972;SDS011;6551;51.056;9.466;2022-08-19T00:14:57;17.57;;;15.57;;
12972;SDS011;6551;51.056;9.466;2022-08-19T00:17:22;18.37;;;15.27;;
12972;SDS011;6551;51.056;9.466;2022-08-19T00:19:48;16.97;;;15.23;;
12972;SDS011;6551;51.056;9.466;2022-08-19T00:22:14;16.80;;;15.00;;
12972;SDS011;6551;51.056;9.466;2022-08-19T00:24:40;15.17;;;13.57;;
12972;SDS011;6551;51.056;9.466;2022-08-19T00:27:08;14.57;;;12.93;;
12972;SDS011;6551;51.056;9.466;2022-08-19T00:29:34;15.43;;;12.90;;
12972;SDS011;6551;51.056;9.466;2022-08-19T00:31:59;15.50;;;13.90;;
12972;SDS011;6551;51.056;9.466;2022-08-19T00:34:25;15.10;;;13.50;;
12972;SDS011;6551;51.056;9.466;2022-08-19T00:36:55;14.93;;;13.43;;
12972;SDS011;6551;51.056;9.466;2022-08-19T00:39:22;15.30;;;13.63;;
12972;SDS011;6551;51.056;9.466;2022-08-19T00:41:49;15.73;;;14.13;;
12972;SDS011;6551;51.056;9.466;2022-08-19T00:44:17;16.80;;;15.03;;
12972;SDS011;6551;51.056;9.466;2022-08-19T00:46:48;17.93;;;14.43;;
12972;SDS011;6551;51.056;9.466;2022-08-19T00:50:01;17.00;;;15.30;;
12972;SDS011;6551;51.056;9.466;2022-08-19T00:52:07;18.53;;;16.53;;
12972;SDS011;6551;51.056;9.466;2022-08-19T00:54:37;21.77;;;18.63;;
12972;SDS011;6551;51.056;9.466;2022-08-19T00:57:06;19.07;;;16.50;;
12972;SDS011;6551;51.056;9.466;2022-08-19T00:59:37;20.03;;;17.70;;
12972;SDS011;6551;51.056;9.466;2022-08-19T01:02:05;18.97;;;15.90;;
12972;SDS011;6551;51.056;9.466;2022-08-19T01:04:31;18.40;;;16.33;;
12972;SDS011;6551;51.056;9.466;2022-08-19T01:06:57;17.60;;;15.83;;
12972;SDS011;6551;51.056;9.466;2022-08-19T01:09:24;18.30;;;16.20;;
12972;SDS011;6551;51.056;9.466;2022-08-19T01:11:49;18.60;;;15.53;;
12972;SDS011;6551;51.056;9.466;2022-08-19T01:14:16;20.90;;;18.77;;
12972;SDS011;6551;51.056;9.466;2022-08-19T01:16:42;19.27;;;16.07;;
12972;SDS011;6551;51.056;9.466;2022-08-19T01:19:18;20.10;;;16.57;;
12972;SDS011;6551;51.056;9.466;2022-08-19T01:21:55;17.83;;;15.77;;
12972;SDS011;6551;51.056;9.466;2022-08-19T01:24:45;15.30;;;13.13;;
12972;SDS011;6551;51.056;9.466;2022-08-19T01:27:12;15.93;;;13.27;;
12972;SDS011;6551;51.056;9.466;2022-08-19T01:29:39;14.27;;;12.77;;
12972;SDS011;6551;51.056;9.466;2022-08-19T01:32:10;15.87;;;12.40;;
12972;SDS011;6551;51.056;9.466;2022-08-19T01:34:39;14.37;;;11.90;;
12972;SDS011;6551;51.056;9.466;2022-08-19T01:37:09;12.97;;;11.27;;
12972;SDS011;6551;51.056;9.466;2022-08-19T01:39:38;16.50;;;14.77;;
12972;SDS011;6551;51.056;9.466;2022-08-19T01:42:06;12.23;;;10.13;;
12972;SDS011;6551;51.056;9.466;2022-08-19T01:44:34;11.07;;;9.97;;
12972;SDS011;6551;51.056;9.466;2022-08-19T01:47:01;12.27;;;10.03;;
12972;SDS011;6551;51.056;9.466;2022-08-19T01:49:28;11.57;;;9.83;;
12972;SDS011;6551;51.056;9.466;2022-08-19T01:51:54;11.63;;;10.53;;
12972;SDS011;6551;51.056;9.466;2022-08-19T01:54:22;10.67;;;9.00;;
12972;SDS011;6551;51.056;9.466;2022-08-19T01:56:50;11.03;;;8.63;;
12972;SDS011;6551;51.056;9.466;2022-08-19T01:59:19;10.47;;;9.47;;
12972;SDS011;6551;51.056;9.466;2022-08-19T02:01:46;10.53;;;8.50;;
12972;SDS011;6551;51.056;9.466;2022-08-19T02:04:12;10.40;;;8.95;;
12972;SDS011;6551;51.056;9.466;2022-08-19T02:06:39;10.83;;;9.53;;
12972;SDS011;6551;51.056;9.466;2022-08-19T02:09:06;10.03;;;9.03;;
12972;SDS011;6551;51.056;9.466;2022-08-19T02:11:33;10.90;;;9.13;;
12972;SDS011;6551;51.056;9.466;2022-08-19T02:14:03;13.13;;;11.73;;
12972;SDS011;6551;51.056;9.466;2022-08-19T02:16:32;12.00;;;9.97;;
12972;SDS011;6551;51.056;9.466;2022-08-19T02:18:58;9.63;;;8.73;;
12972;SDS011;6551;51.056;9.466;2022-08-19T02:21:27;11.57;;;9.53;;
12972;SDS011;6551;51.056;9.466;2022-08-19T02:23:54;10.73;;;9.40;;
12972;SDS011;6551;51.056;9.466;2022-08-19T02:26:20;10.33;;;8.50;;
12972;SDS011;6551;51.056;9.466;2022-08-19T02:28:47;12.87;;;9.07;;
12972;SDS011;6551;51.056;9.466;2022-08-19T02:31:14;10.93;;;8.83;;
12972;SDS011;6551;51.056;9.466;2022-08-19T02:33:44;10.73;;;8.63;;
12972;SDS011;6551;51.056;9.466;2022-08-19T02:36:11;10.30;;;9.30;;
12972;SDS011;6551;51.056;9.466;2022-08-19T02:38:39;11.77;;;9.57;;
12972;SDS011;6551;51.056;9.466;2022-08-19T02:41:06;11.77;;;9.73;;
12972;SDS011;6551;51.056;9.466;2022-08-19T02:43:38;11.85;;;9.55;;
12972;SDS011;6551;51.056;9.466;2022-08-19T02:46:38;10.60;;;9.50;;
12972;SDS011;6551;51.056;9.466;2022-08-19T02:48:59;11.40;;;8.97;;
12972;SDS011;6551;51.056;9.466;2022-08-19T02:51:34;11.20;;;9.63;;
12972;SDS011;6551;51.056;9.466;2022-08-19T02:54:04;12.00;;;9.20;;
12972;SDS011;6551;51.056;9.466;2022-08-19T02:56:33;9.73;;;8.73;;
12972;SDS011;6551;51.056;9.466;2022-08-19T02:59:01;11.35;;;8.82;;
12972;SDS011;6551;51.056;9.466;2022-08-19T03:01:32;9.23;;;8.13;;
12972;SDS011;6551;51.056;9.466;2022-08-19T03:03:59;11.37;;;8.73;;
12972;SDS011;6551;51.056;9.466;2022-08-19T03:06:28;11.97;;;9.33;;
12972;SDS011;6551;51.056;9.466;2022-08-19T03:08:54;11.47;;;10.33;;
12972;SDS011;6551;51.056;9.466;2022-08-19T03:13:53;9.97;;;8.13;;
12972;SDS011;6551;51.056;9.466;2022-08-19T03:16:21;9.68;;;8.07;;
12972;SDS011;6551;51.056;9.466;2022-08-19T03:18:49;9.40;;;8.48;;
12972;SDS011;6551;51.056;9.466;2022-08-19T03:21:18;10.03;;;7.80;;
12972;SDS011;6551;51.056;9.466;2022-08-19T03:23:49;9.63;;;8.33;;
12972;SDS011;6551;51.056;9.466;2022-08-19T03:26:15;9.97;;;8.97;;
12972;SDS011;6551;51.056;9.466;2022-08-19T03:28:42;8.97;;;8.07;;
12972;SDS011;6551;51.056;9.466;2022-08-19T03:31:12;11.70;;;8.93;;
12972;SDS011;6551;51.056;9.466;2022-08-19T03:33:39;11.10;;;8.80;;
12972;SDS011;6551;51.056;9.466;2022-08-19T03:38:44;10.43;;;9.30;;
12972;SDS011;6551;51.056;9.466;2022-08-19T03:41:14;12.73;;;9.37;;
12972;SDS011;6551;51.056;9.466;2022-08-19T03:43:43;10.23;;;9.20;;
12972;SDS011;6551;51.056;9.466;2022-08-19T03:46:19;10.40;;;9.33;;
12972;SDS011;6551;51.056;9.466;2022-08-19T03:48:50;11.77;;;9.70;;
12972;SDS011;6551;51.056;9.466;2022-08-19T03:51:19;13.13;;;9.63;;
12972;SDS011;6551;51.056;9.466;2022-08-19T03:53:47;10.37;;;9.37;;
12972;SDS011;6551;51.056;9.466;2022-08-19T03:56:13;11.83;;;9.43;;
12972;SDS011;6551;51.056;9.466;2022-08-19T03:58:40;10.80;;;9.77;;
12972;SDS011;6551;51.056;9.466;2022-08-19T04:01:07;10.53;;;8.83;;
12972;SDS011;6551;51.056;9.466;2022-08-19T04:03:35;11.67;;;9.17;;
12972;SDS011;6551;51.056;9.466;2022-08-19T04:06:11;11.20;;;9.03;;
12972;SDS011;6551;51.056;9.466;2022-08-19T04:08:44;9.60;;;8.50;;
12972;SDS011;6551;51.056;9.466;2022-08-19T04:11:12;11.33;;;9.30;;
12972;SDS011;6551;51.056;9.466;2022-08-19T04:13:41;8.90;;;8.00;;
12972;SDS011;6551;51.056;9.466;2022-08-19T04:16:10;10.57;;;8.47;;
12972;SDS011;6551;51.056;9.466;2022-08-19T04:18:36;8.87;;;7.97;;
12972;SDS011;6551;51.056;9.466;2022-08-19T04:21:04;11.83;;;9.67;;
12972;SDS011;6551;51.056;9.466;2022-08-19T04:23:32;10.87;;;9.07;;
12972;SDS011;6551;51.056;9.466;2022-08-19T04:26:00;10.40;;;8.03;;
12972;SDS011;6551;51.056;9.466;2022-08-19T04:28:27;10.30;;;8.10;;
12972;SDS011;6551;51.056;9.466;2022-08-19T04:30:53;9.03;;;7.00;;
12972;SDS011;6551;51.056;9.466;2022-08-19T04:33:21;8.77;;;7.80;;
12972;SDS011;6551;51.056;9.466;2022-08-19T04:35:53;11.00;;;8.37;;
12972;SDS011;6551;51.056;9.466;2022-08-19T04:38:19;8.70;;;6.97;;
12972;SDS011;6551;51.056;9.466;2022-08-19T04:40:49;9.30;;;6.90;;
12972;SDS011;6551;51.056;9.466;2022-08-19T04:43:35;11.30;;;7.20;;
12972;SDS011;6551;51.056;9.466;2022-08-19T04:46:06;11.37;;;7.50;;
12972;SDS011;6551;51.056;9.466;2022-08-19T04:48:35;10.43;;;7.10;;
12972;SDS011;6551;51.056;9.466;2022-08-19T04:51:05;8.40;;;7.13;;
12972;SDS011;6551;51.056;9.466;2022-08-19T04:53:35;8.40;;;6.70;;
12972;SDS011;6551;51.056;9.466;2022-08-19T04:56:15;12.33;;;8.17;;
12972;SDS011;6551;51.056;9.466;2022-08-19T04:58:44;11.70;;;6.83;;
12972;SDS011;6551;51.056;9.466;2022-08-19T05:01:14;12.88;;;9.25;;
12972;SDS011;6551;51.056;9.466;2022-08-19T05:03:44;13.93;;;7.20;;
12972;SDS011;6551;51.056;9.466;2022-08-19T05:06:13;7.80;;;6.63;;
12972;SDS011;6551;51.056;9.466;2022-08-19T05:08:41;9.00;;;6.80;;
12972;SDS011;6551;51.056;9.466;2022-08-19T05:11:13;9.03;;;6.53;;
12972;SDS011;6551;51.056;9.466;2022-08-19T05:13:45;7.00;;;6.17;;
12972;SDS011;6551;51.056;9.466;2022-08-19T05:16:13;9.47;;;6.07;;
12972;SDS011;6551;51.056;9.466;2022-08-19T05:18:42;12.20;;;7.87;;
12972;SDS011;6551;51.056;9.466;2022-08-19T05:21:27;7.10;;;5.30;;
12972;SDS011;6551;51.056;9.466;2022-08-19T05:24:13;9.87;;;7.57;;
12972;SDS011;6551;51.056;9.466;2022-08-19T05:26:41;11.50;;;6.53;;
12972;SDS011;6551;51.056;9.466;2022-08-19T05:29:14;8.23;;;6.93;;
12972;SDS011;6551;51.056;9.466;2022-08-19T05:31:42;9.37;;;7.50;;
12972;SDS011;6551;51.056;9.466;2022-08-19T05:34:08;8.30;;;6.67;;
12972;SDS011;6551;51.056;9.466;2022-08-19T05:36:39;8.30;;;6.03;;
12972;SDS011;6551;51.056;9.466;2022-08-19T05:39:09;9.03;;;6.03;;
12972;SDS011;6551;51.056;9.466;2022-08-19T05:41:42;11.77;;;8.03;;
12972;SDS011;6551;51.056;9.466;2022-08-19T05:44:09;8.95;;;6.32;;
12972;SDS011;6551;51.056;9.466;2022-08-19T05:46:38;8.30;;;5.90;;
12972;SDS011;6551;51.056;9.466;2022-08-19T05:49:05;8.63;;;5.80;;
12972;SDS011;6551;51.056;9.466;2022-08-19T05:51:33;7.53;;;6.80;;
12972;SDS011;6551;51.056;9.466;2022-08-19T05:54:01;8.90;;;6.67;;
12972;SDS011;6551;51.056;9.466;2022-08-19T05:56:29;9.43;;;6.40;;
12972;SDS011;6551;51.056;9.466;2022-08-19T05:58:56;8.73;;;6.10;;
12972;SDS011;6551;51.056;9.466;2022-08-19T06:01:23;9.90;;;6.13;;
12972;SDS011;6551;51.056;9.466;2022-08-19T06:03:50;8.67;;;6.03;;
12972;SDS011;6551;51.056;9.466;2022-08-19T06:06:16;7.63;;;5.53;;
12972;SDS011;6551;51.056;9.466;2022-08-19T06:08:43;13.50;;;6.93;;
12972;SDS011;6551;51.056;9.466;2022-08-19T06:11:20;11.13;;;5.80;;
12972;SDS011;6551;51.056;9.466;2022-08-19T06:13:49;7.25;;;5.60;;
12972;SDS011;6551;51.056;9.466;2022-08-19T06:16:21;8.15;;;5.20;;
12972;SDS011;6551;51.056;9.466;2022-08-19T06:18:51;7.07;;;5.10;;
12972;SDS011;6551;51.056;9.466;2022-08-19T06:21:18;8.70;;;4.97;;
12972;SDS011;6551;51.056;9.466;2022-08-19T06:23:47;12.95;;;5.90;;
12972;SDS011;6551;51.056;9.466;2022-08-19T06:26:14;7.38;;;5.47;;
12972;SDS011;6551;51.056;9.466;2022-08-19T06:28:41;11.82;;;6.07;;
12972;SDS011;6551;51.056;9.466;2022-08-19T06:31:12;7.45;;;5.80;;
12972;SDS011;6551;51.056;9.466;2022-08-19T06:33:43;7.93;;;5.30;;
12972;SDS011;6551;51.056;9.466;2022-08-19T06:36:17;8.80;;;5.43;;
12972;SDS011;6551;51.056;9.466;2022-08-19T06:38:58;10.55;;;4.95;;
12972;SDS011;6551;51.056;9.466;2022-08-19T06:41:47;7.28;;;4.53;;
12972;SDS011;6551;51.056;9.466;2022-08-19T06:44:16;6.05;;;4.18;;
12972;SDS011;6551;51.056;9.466;2022-08-19T06:46:46;7.38;;;4.47;;
12972;SDS011;6551;51.056;9.466;2022-08-19T06:49:13;7.05;;;4.22;;
12972;SDS011;6551;51.056;9.466;2022-08-19T06:51:41;8.40;;;4.63;;
12972;SDS011;6551;51.056;9.466;2022-08-19T06:54:09;10.70;;;4.70;;
12972;SDS011;6551;51.056;9.466;2022-08-19T06:56:36;7.88;;;4.40;;
12972;SDS011;6551;51.056;9.466;2022-08-19T06:59:04;6.33;;;4.50;;
12972;SDS011;6551;51.056;9.466;2022-08-19T07:01:36;7.97;;;4.10;;
12972;SDS011;6551;51.056;9.466;2022-08-19T07:04:10;7.55;;;4.00;;
12972;SDS011;6551;51.056;9.466;2022-08-19T07:06:36;5.97;;;4.00;;
12972;SDS011;6551;51.056;9.466;2022-08-19T07:09:05;5.00;;;4.10;;
12972;SDS011;6551;51.056;9.466;2022-08-19T07:11:33;6.00;;;4.20;;
12972;SDS011;6551;51.056;9.466;2022-08-19T07:13:59;6.27;;;4.23;;
12972;SDS011;6551;51.056;9.466;2022-08-19T07:16:26;6.25;;;3.50;;
12972;SDS011;6551;51.056;9.466;2022-08-19T07:18:53;6.83;;;4.13;;
12972;SDS011;6551;51.056;9.466;2022-08-19T07:21:21;6.27;;;3.73;;
12972;SDS011;6551;51.056;9.466;2022-08-19T07:23:52;8.25;;;5.45;;
12972;SDS011;6551;51.056;9.466;2022-08-19T07:26:22;6.65;;;3.88;;
12972;SDS011;6551;51.056;9.466;2022-08-19T07:28:54;6.95;;;3.80;;
12972;SDS011;6551;51.056;9.466;2022-08-19T07:31:21;6.40;;;4.28;;
12972;SDS011;6551;51.056;9.466;2022-08-19T07:33:51;4.68;;;4.18;;
12972;SDS011;6551;51.056;9.466;2022-08-19T07:36:21;7.65;;;3.65;;
12972;SDS011;6551;51.056;9.466;2022-08-19T07:38:57;6.10;;;2.78;;
12972;SDS011;6551;51.056;9.466;2022-08-19T07:41:25;8.52;;;3.70;;
12972;SDS011;6551;51.056;9.466;2022-08-19T07:43:56;6.53;;;3.80;;
12972;SDS011;6551;51.056;9.466;2022-08-19T07:46:23;5.25;;;3.50;;
12972;SDS011;6551;51.056;9.466;2022-08-19T07:48:49;5.47;;;3.28;;
12972;SDS011;6551;51.056;9.466;2022-08-19T07:51:17;7.10;;;3.40;;
12972;SDS011;6551;51.056;9.466;2022-08-19T07:53:46;4.57;;;3.53;;
12972;SDS011;6551;51.056;9.466;2022-08-19T07:56:16;5.57;;;3.55;;
12972;SDS011;6551;51.056;9.466;2022-08-19T07:58:47;4.80;;;3.30;;
12972;SDS011;6551;51.056;9.466;2022-08-19T08:01:23;4.95;;;3.13;;
12972;SDS011;6551;51.056;9.466;2022-08-19T08:03:51;4.47;;;3.50;;
12972;SDS011;6551;51.056;9.466;2022-08-19T08:06:37;5.00;;;3.17;;
12972;SDS011;6551;51.056;9.466;2022-08-19T08:09:24;4.93;;;3.08;;
12972;SDS011;6551;51.056;9.466;2022-08-19T08:12:06;6.63;;;3.00;;
12972;SDS011;6551;51.056;9.466;2022-08-19T08:14:44;7.03;;;3.72;;
12972;SDS011;6551;51.056;9.466;2022-08-19T08:17:14;7.82;;;3.75;;
12972;SDS011;6551;51.056;9.466;2022-08-19T08:19:41;6.32;;;3.75;;
12972;SDS011;6551;51.056;9.466;2022-08-19T08:22:08;6.43;;;3.08;;
12972;SDS011;6551;51.056;9.466;2022-08-19T08:24:55;6.85;;;2.92;;
12972;SDS011;6551;51.056;9.466;2022-08-19T08:27:23;5.07;;;2.83;;
12972;SDS011;6551;51.056;9.466;2022-08-19T08:29:49;3.70;;;2.78;;
12972;SDS011;6551;51.056;9.466;2022-08-19T08:32:15;5.88;;;2.85;;
12972;SDS011;6551;51.056;9.466;2022-08-19T08:34:41;4.35;;;2.50;;
12972;SDS011;6551;51.056;9.466;2022-08-19T08:37:08;3.15;;;2.45;;
12972;SDS011;6551;51.056;9.466;2022-08-19T08:39:33;4.47;;;2.70;;
12972;SDS011;6551;51.056;9.466;2022-08-19T08:42:07;4.75;;;2.75;;
12972;SDS011;6551;51.056;9.466;2022-08-19T08:44:54;5.18;;;2.22;;
12972;SDS011;6551;51.056;9.466;2022-08-19T08:47:29;2.55;;;2.35;;
12972;SDS011;6551;51.056;9.466;2022-08-19T08:50:07;3.00;;;2.33;;
12972;SDS011;6551;51.056;9.466;2022-08-19T08:52:50;4.43;;;2.35;;
12972;SDS011;6551;51.056;9.466;2022-08-19T08:55:22;2.95;;;2.40;;
12972;SDS011;6551;51.056;9.466;2022-08-19T08:57:53;4.78;;;2.53;;
12972;SDS011;6551;51.056;9.466;2022-08-19T09:00:30;2.90;;;2.30;;
12972;SDS011;6551;51.056;9.466;2022-08-19T09:02:59;3.45;;;2.55;;
12972;SDS011;6551;51.056;9.466;2022-08-19T09:05:45;5.30;;;2.20;;
12972;SDS011;6551;51.056;9.466;2022-08-19T09:09:03;3.35;;;2.42;;
12972;SDS011;6551;51.056;9.466;2022-08-19T09:17:28;4.03;;;2.28;;
12972;SDS011;6551;51.056;9.466;2022-08-19T09:20:18;4.05;;;3.13;;
12972;SDS011;6551;51.056;9.466;2022-08-19T09:22:47;3.92;;;2.85;;
12972;SDS011;6551;51.056;9.466;2022-08-19T09:25:16;2.53;;;2.10;;
12972;SDS011;6551;51.056;9.466;2022-08-19T09:27:48;4.20;;;2.20;;
12972;SDS011;6551;51.056;9.466;2022-08-19T09:30:18;5.15;;;2.55;;
12972;SDS011;6551;51.056;9.466;2022-08-19T09:32:48;9.57;;;2.88;;
12972;SDS011;6551;51.056;9.466;2022-08-19T09:35:17;5.03;;;2.53;;
12972;SDS011;6551;51.056;9.466;2022-08-19T09:37:44;4.32;;;2.20;;
12972;SDS011;6551;51.056;9.466;2022-08-19T09:40:10;4.50;;;2.50;;
12972;SDS011;6551;51.056;9.466;2022-08-19T09:42:37;4.45;;;2.45;;
12972;SDS011;6551;51.056;9.466;2022-08-19T09:45:03;5.53;;;3.17;;
12972;SDS011;6551;51.056;9.466;2022-08-19T09:47:30;4.15;;;2.95;;
12972;SDS011;6551;51.056;9.466;2022-08-19T09:49:57;3.42;;;2.33;;
12972;SDS011;6551;51.056;9.466;2022-08-19T09:52:23;4.32;;;2.38;;
12972;SDS011;6551;51.056;9.466;2022-08-19T09:54:51;3.03;;;2.40;;
12972;SDS011;6551;51.056;9.466;2022-08-19T09:57:18;3.08;;;1.88;;
12972;SDS011;6551;51.056;9.466;2022-08-19T09:59:43;8.50;;;3.38;;
12972;SDS011;6551;51.056;9.466;2022-08-19T10:02:09;4.75;;;2.70;;
12972;SDS011;6551;51.056;9.466;2022-08-19T10:04:35;4.28;;;2.90;;
12972;SDS011;6551;51.056;9.466;2022-08-19T10:07:20;7.47;;;3.85;;
12972;SDS011;6551;51.056;9.466;2022-08-19T10:09:46;3.80;;;2.72;;
12972;SDS011;6551;51.056;9.466;2022-08-19T10:12:12;5.97;;;3.33;;
12972;SDS011;6551;51.056;9.466;2022-08-19T10:14:39;6.00;;;3.10;;
12972;SDS011;6551;51.056;9.466;2022-08-19T10:17:04;3.50;;;2.53;;
12972;SDS011;6551;51.056;9.466;2022-08-19T10:19:30;6.43;;;2.50;;
12972;SDS011;6551;51.056;9.466;2022-08-19T10:22:02;3.13;;;2.35;;
12972;SDS011;6551;51.056;9.466;2022-08-19T10:24:32;4.07;;;2.22;;
12972;SDS011;6551;51.056;9.466;2022-08-19T10:26:59;4.22;;;2.60;;
12972;SDS011;6551;51.056;9.466;2022-08-19T10:29:28;2.60;;;2.05;;
12972;SDS011;6551;51.056;9.466;2022-08-19T10:31:56;3.47;;;2.30;;
12972;SDS011;6551;51.056;9.466;2022-08-19T10:34:25;3.65;;;2.47;;
12972;SDS011;6551;51.056;9.466;2022-08-19T10:36:51;2.67;;;2.20;;
12972;SDS011;6551;51.056;9.466;2022-08-19T10:39:17;5.30;;;3.00;;
12972;SDS011;6551;51.056;9.466;2022-08-19T10:41:42;3.40;;;2.53;;
12972;SDS011;6551;51.056;9.466;2022-08-19T10:44:09;3.38;;;2.40;;
12972;SDS011;6551;51.056;9.466;2022-08-19T10:46:38;3.05;;;2.42;;
12972;SDS011;6551;51.056;9.466;2022-08-19T10:49:06;3.90;;;2.35;;
12972;SDS011;6551;51.056;9.466;2022-08-19T10:51:34;5.25;;;2.90;;
12972;SDS011;6551;51.056;9.466;2022-08-19T10:54:18;4.38;;;2.25;;
12972;SDS011;6551;51.056;9.466;2022-08-19T10:56:44;3.13;;;2.30;;
12972;SDS011;6551;51.056;9.466;2022-08-19T10:59:24;3.58;;;1.92;;
12972;SDS011;6551;51.056;9.466;2022-08-19T11:01:58;3.83;;;1.98;;
12972;SDS011;6551;51.056;9.466;2022-08-19T11:04:27;3.25;;;1.60;;
12972;SDS011;6551;51.056;9.466;2022-08-19T11:06:53;3.60;;;2.15;;
12972;SDS011;6551;51.056;9.466;2022-08-19T11:09:20;2.08;;;1.75;;
12972;SDS011;6551;51.056;9.466;2022-08-19T11:11:54;3.25;;;1.83;;
12972;SDS011;6551;51.056;9.466;2022-08-19T11:14:21;2.15;;;1.60;;
12972;SDS011;6551;51.056;9.466;2022-08-19T11:16:50;3.63;;;1.88;;
12972;SDS011;6551;51.056;9.466;2022-08-19T11:19:20;5.75;;;2.05;;
12972;SDS011;6551;51.056;9.466;2022-08-19T11:21:48;2.22;;;1.75;;
12972;SDS011;6551;51.056;9.466;2022-08-19T11:24:16;4.25;;;2.03;;
12972;SDS011;6551;51.056;9.466;2022-08-19T11:26:49;3.90;;;2.28;;
12972;SDS011;6551;51.056;9.466;2022-08-19T11:29:19;2.42;;;1.60;;
12972;SDS011;6551;51.056;9.466;2022-08-19T11:31:47;4.03;;;1.95;;
12972;SDS011;6551;51.056;9.466;2022-08-19T11:34:15;3.40;;;1.67;;
12972;SDS011;6551;51.056;9.466;2022-08-19T11:36:45;2.08;;;1.85;;
12972;SDS011;6551;51.056;9.466;2022-08-19T11:39:17;2.90;;;1.85;;
12972;SDS011;6551;51.056;9.466;2022-08-19T11:41:47;2.88;;;1.70;;
12972;SDS011;6551;51.056;9.466;2022-08-19T11:44:13;4.47;;;2.42;;
12972;SDS011;6551;51.056;9.466;2022-08-19T11:46:39;3.08;;;1.80;;
12972;SDS011;6551;51.056;9.466;2022-08-19T11:49:10;5.15;;;1.85;;
12972;SDS011;6551;51.056;9.466;2022-08-19T11:51:36;4.20;;;2.30;;
12972;SDS011;6551;51.056;9.466;2022-08-19T11:54:03;4.88;;;1.80;;
12972;SDS011;6551;51.056;9.466;2022-08-19T11:56:31;3.60;;;2.30;;
12972;SDS011;6551;51.056;9.466;2022-08-19T11:58:56;3.55;;;2.38;;
12972;SDS011;6551;51.056;9.466;2022-08-19T12:01:23;3.22;;;2.08;;
12972;SDS011;6551;51.056;9.466;2022-08-19T12:03:51;3.80;;;1.95;;
12972;SDS011;6551;51.056;9.466;2022-08-19T12:06:21;4.75;;;2.05;;
12972;SDS011;6551;51.056;9.466;2022-08-19T12:08:54;2.95;;;1.88;;
12972;SDS011;6551;51.056;9.466;2022-08-19T12:11:21;3.00;;;2.10;;
12972;SDS011;6551;51.056;9.466;2022-08-19T12:13:48;4.05;;;3.38;;
12972;SDS011;6551;51.056;9.466;2022-08-19T12:16:15;3.47;;;2.55;;
12972;SDS011;6551;51.056;9.466;2022-08-19T12:18:45;4.95;;;3.50;;
12972;SDS011;6551;51.056;9.466;2022-08-19T12:21:15;4.50;;;3.00;;
12972;SDS011;6551;51.056;9.466;2022-08-19T12:23:46;3.95;;;2.97;;
12972;SDS011;6551;51.056;9.466;2022-08-19T12:26:13;4.68;;;3.00;;
12972;SDS011;6551;51.056;9.466;2022-08-19T12:28:39;3.75;;;2.70;;
12972;SDS011;6551;51.056;9.466;2022-08-19T12:31:06;4.20;;;2.63;;
12972;SDS011;6551;51.056;9.466;2022-08-19T12:33:32;5.03;;;2.72;;
12972;SDS011;6551;51.056;9.466;2022-08-19T12:36:02;5.20;;;2.85;;
12972;SDS011;6551;51.056;9.466;2022-08-19T12:38:31;4.22;;;2.63;;
12972;SDS011;6551;51.056;9.466;2022-08-19T12:40:59;5.68;;;3.92;;
12972;SDS011;6551;51.056;9.466;2022-08-19T12:43:24;5.78;;;3.47;;
12972;SDS011;6551;51.056;9.466;2022-08-19T12:45:50;3.72;;;2.83;;
12972;SDS011;6551;51.056;9.466;2022-08-19T12:48:16;3.20;;;2.60;;
12972;SDS011;6551;51.056;9.466;2022-08-19T12:50:42;5.28;;;2.92;;
12972;SDS011;6551;51.056;9.466;2022-08-19T12:53:12;3.63;;;2.42;;
12972;SDS011;6551;51.056;9.466;2022-08-19T12:55:39;3.35;;;2.63;;
12972;SDS011;6551;51.056;9.466;2022-08-19T12:58:07;8.13;;;2.42;;
12972;SDS011;6551;51.056;9.466;2022-08-19T13:00:33;4.80;;;2.75;;
12972;SDS011;6551;51.056;9.466;2022-08-19T13:02:59;5.57;;;2.65;;
12972;SDS011;6551;51.056;9.466;2022-08-19T13:05:27;8.70;;;2.67;;
12972;SDS011;6551;51.056;9.466;2022-08-19T13:07:56;3.20;;;2.30;;
12972;SDS011;6551;51.056;9.466;2022-08-19T13:10:26;2.08;;;1.85;;
12972;SDS011;6551;51.056;9.466;2022-08-19T13:12:56;5.07;;;2.40;;
12972;SDS011;6551;51.056;9.466;2022-08-19T13:15:24;3.00;;;2.10;;
12972;SDS011;6551;51.056;9.466;2022-08-19T13:17:51;5.25;;;3.10;;
12972;SDS011;6551;51.056;9.466;2022-08-19T13:20:19;6.05;;;2.17;;
12972;SDS011;6551;51.056;9.466;2022-08-19T13:22:45;4.07;;;2.45;;
12972;SDS011;6551;51.056;9.466;2022-08-19T13:25:12;3.22;;;2.38;;
12972;SDS011;6551;51.056;9.466;2022-08-19T13:27:42;3.92;;;2.30;;
12972;SDS011;6551;51.056;9.466;2022-08-19T13:30:09;4.35;;;2.10;;
12972;SDS011;6551;51.056;9.466;2022-08-19T13:32:55;6.85;;;2.53;;
12972;SDS011;6551;51.056;9.466;2022-08-19T13:35:37;4.93;;;2.40;;
12972;SDS011;6551;51.056;9.466;2022-08-19T13:38:04;2.20;;;1.92;;
12972;SDS011;6551;51.056;9.466;2022-08-19T13:40:31;4.60;;;2.42;;
12972;SDS011;6551;51.056;9.466;2022-08-19T13:43:01;2.63;;;2.25;;
12972;SDS011;6551;51.056;9.466;2022-08-19T13:45:29;2.88;;;1.83;;
12972;SDS011;6551;51.056;9.466;2022-08-19T13:47:59;2.83;;;2.30;;
12972;SDS011;6551;51.056;9.466;2022-08-19T13:50:31;3.67;;;2.70;;
12972;SDS011;6551;51.056;9.466;2022-08-19T13:52:59;4.30;;;2.50;;
12972;SDS011;6551;51.056;9.466;2022-08-19T13:55:26;3.72;;;2.30;;
12972;SDS011;6551;51.056;9.466;2022-08-19T13:57:52;4.45;;;2.40;;
12972;SDS011;6551;51.056;9.466;2022-08-19T14:00:20;3.55;;;2.70;;
12972;SDS011;6551;51.056;9.466;2022-08-19T14:02:50;5.28;;;2.90;;
12972;SDS011;6551;51.056;9.466;2022-08-19T14:05:18;4.30;;;2.70;;
12972;SDS011;6551;51.056;9.466;2022-08-19T14:07:44;3.97;;;2.90;;
12972;SDS011;6551;51.056;9.466;2022-08-19T14:10:11;6.05;;;3.15;;
12972;SDS011;6551;51.056;9.466;2022-08-19T14:12:38;4.80;;;2.75;;
12972;SDS011;6551;51.056;9.466;2022-08-19T14:15:05;5.43;;;2.75;;
12972;SDS011;6551;51.056;9.466;2022-08-19T14:17:33;4.60;;;2.85;;
12972;SDS011;6551;51.056;9.466;2022-08-19T14:20:03;8.07;;;3.00;;
12972;SDS011;6551;51.056;9.466;2022-08-19T14:22:35;4.00;;;2.38;;
12972;SDS011;6551;51.056;9.466;2022-08-19T14:25:03;4.80;;;2.90;;
12972;SDS011;6551;51.056;9.466;2022-08-19T14:27:34;4.63;;;3.33;;
12972;SDS011;6551;51.056;9.466;2022-08-19T14:30:03;7.60;;;3.15;;
12972;SDS011;6551;51.056;9.466;2022-08-19T14:32:30;6.05;;;3.00;;
12972;SDS011;6551;51.056;9.466;2022-08-19T14:34:56;7.07;;;2.97;;
12972;SDS011;6551;51.056;9.466;2022-08-19T14:37:21;6.13;;;2.72;;
12972;SDS011;6551;51.056;9.466;2022-08-19T14:39:47;5.20;;;3.17;;
12972;SDS011;6551;51.056;9.466;2022-08-19T14:42:13;4.13;;;2.50;;
12972;SDS011;6551;51.056;9.466;2022-08-19T14:44:40;2.92;;;2.50;;
12972;SDS011;6551;51.056;9.466;2022-08-19T14:47:06;4.55;;;2.70;;
12972;SDS011;6551;51.056;9.466;2022-08-19T14:49:33;3.65;;;2.80;;
12972;SDS011;6551;51.056;9.466;2022-08-19T14:51:59;4.20;;;2.70;;
12972;SDS011;6551;51.056;9.466;2022-08-19T14:54:25;6.28;;;2.78;;
12972;SDS011;6551;51.056;9.466;2022-08-19T14:56:51;3.72;;;2.63;;
12972;SDS011;6551;51.056;9.466;2022-08-19T14:59:17;6.93;;;2.70;;
12972;SDS011;6551;51.056;9.466;2022-08-19T15:01:43;6.70;;;3.95;;
12972;SDS011;6551;51.056;9.466;2022-08-19T15:04:09;3.53;;;2.90;;
12972;SDS011;6551;51.056;9.466;2022-08-19T15:06:34;3.25;;;2.75;;
12972;SDS011;6551;51.056;9.466;2022-08-19T15:09:00;3.35;;;2.72;;
12972;SDS011;6551;51.056;9.466;2022-08-19T15:11:27;4.03;;;2.72;;
12972;SDS011;6551;51.056;9.466;2022-08-19T15:13:54;3.90;;;2.67;;
12972;SDS011;6551;51.056;9.466;2022-08-19T15:16:22;2.92;;;2.33;;
12972;SDS011;6551;51.056;9.466;2022-08-19T15:18:51;3.50;;;2.50;;